sensor_id;sensor_type;location;lat;lon;timestamp;P1;durP1;ratioP1;P2;durP2;ratioP2
77544;SDS011;66672;50.328;7.610;2023-04-01T00:01:13;2.95;;;0.70;;
77544;SDS011;66672;50.328;7.610;2023-04-01T00:03:39;6.03;;;0.70;;
77544;SDS011;66672;50.328;7.610;2023-04-01T00:06:05;3.35;;;0.60;;
77544;SDS011;66672;50.328;7.610;2023-04-01T00:08:30;5.18;;;0.77;;
77544;SDS011;66672;50.328;7.610;2023-04-01T00:10:56;4.60;;;0.57;;
77544;SDS011;66672;50.328;7.610;2023-04-01T00:13:22;4.40;;;1.08;;
77544;SDS011;66672;50.328;7.610;2023-04-01T00:15:48;5.18;;;0.75;;
77544;SDS011;66672;50.328;7.610;2023-04-01T00:18:13;2.80;;;0.50;;
77544;SDS011;66672;50.328;7.610;2023-04-01T00:20:38;2.05;;;0.60;;
77544;SDS011;66672;50.328;7.610;2023-04-01T00:23:04;3.30;;;0.60;;
77544;SDS011;66672;50.328;7.610;2023-04-01T00:25:30;2.80;;;1.08;;
77544;SDS011;66672;50.328;7.610;2023-04-01T00:27:55;4.78;;;0.60;;
77544;SDS011;66672;50.328;7.610;2023-04-01T00:30:21;2.60;;;0.50;;
77544;SDS011;66672;50.328;7.610;2023-04-01T00:32:46;2.92;;;0.60;;
77544;SDS011;66672;50.328;7.610;2023-04-01T00:35:11;3.08;;;0.55;;
77544;SDS011;66672;50.328;7.610;2023-04-01T00:37:37;0.95;;;0.30;;
77544;SDS011;66672;50.328;7.610;2023-04-01T00:40:04;4.78;;;0.73;;
77544;SDS011;66672;50.328;7.610;2023-04-01T00:42:30;2.83;;;1.05;;
77544;SDS011;66672;50.328;7.610;2023-04-01T00:44:55;2.22;;;0.60;;
77544;SDS011;66672;50.328;7.610;2023-04-01T00:47:21;2.30;;;0.60;;
77544;SDS011;66672;50.328;7.610;2023-04-01T00:49:48;3.42;;;0.70;;
77544;SDS011;66672;50.328;7.610;2023-04-01T00:52:14;1.67;;;0.40;;
77544;SDS011;66672;50.328;7.610;2023-04-01T00:54:40;3.53;;;0.50;;
77544;SDS011;66672;50.328;7.610;2023-04-01T00:57:15;3.20;;;0.55;;
77544;SDS011;66672;50.328;7.610;2023-04-01T00:59:47;2.58;;;0.57;;
77544;SDS011;66672;50.328;7.610;2023-04-01T01:02:13;3.88;;;0.73;;
77544;SDS011;66672;50.328;7.610;2023-04-01T01:04:38;3.13;;;0.70;;
77544;SDS011;66672;50.328;7.610;2023-04-01T01:12:14;5.13;;;0.68;;
77544;SDS011;66672;50.328;7.610;2023-04-01T01:15:00;3.45;;;0.60;;
77544;SDS011;66672;50.328;7.610;2023-04-01T01:17:35;2.83;;;0.70;;
77544;SDS011;66672;50.328;7.610;2023-04-01T01:27:26;3.24;;;0.40;;
77544;SDS011;66672;50.328;7.610;2023-04-01T01:37:41;2.13;;;0.50;;
77544;SDS011;66672;50.328;7.610;2023-04-01T01:40:08;4.65;;;1.10;;
77544;SDS011;66672;50.328;7.610;2023-04-01T01:42:35;1.85;;;0.55;;
77544;SDS011;66672;50.328;7.610;2023-04-01T01:45:02;2.40;;;0.80;;
77544;SDS011;66672;50.328;7.610;2023-04-01T01:47:28;3.60;;;1.00;;
77544;SDS011;66672;50.328;7.610;2023-04-01T01:49:54;3.03;;;0.50;;
77544;SDS011;66672;50.328;7.610;2023-04-01T01:52:21;3.15;;;0.80;;
77544;SDS011;66672;50.328;7.610;2023-04-01T01:54:50;4.47;;;0.55;;
77544;SDS011;66672;50.328;7.610;2023-04-01T01:57:15;1.67;;;0.47;;
77544;SDS011;66672;50.328;7.610;2023-04-01T01:59:41;4.70;;;0.77;;
77544;SDS011;66672;50.328;7.610;2023-04-01T02:02:07;4.72;;;0.47;;
77544;SDS011;66672;50.328;7.610;2023-04-01T02:04:35;2.92;;;0.40;;
77544;SDS011;66672;50.328;7.610;2023-04-01T02:07:02;4.28;;;0.75;;
77544;SDS011;66672;50.328;7.610;2023-04-01T02:09:28;3.42;;;0.50;;
77544;SDS011;66672;50.328;7.610;2023-04-01T02:11:56;4.18;;;0.57;;
77544;SDS011;66672;50.328;7.610;2023-04-01T02:14:23;2.75;;;0.95;;
77544;SDS011;66672;50.328;7.610;2023-04-01T02:16:53;4.95;;;1.05;;
77544;SDS011;66672;50.328;7.610;2023-04-01T02:19:20;4.03;;;0.60;;
77544;SDS011;66672;50.328;7.610;2023-04-01T02:21:49;8.80;;;1.10;;
77544;SDS011;66672;50.328;7.610;2023-04-01T02:24:16;3.50;;;0.60;;
77544;SDS011;66672;50.328;7.610;2023-04-01T02:26:42;4.47;;;0.60;;
77544;SDS011;66672;50.328;7.610;2023-04-01T02:29:08;2.47;;;0.47;;
77544;SDS011;66672;50.328;7.610;2023-04-01T02:31:34;2.63;;;0.40;;
77544;SDS011;66672;50.328;7.610;2023-04-01T02:33:59;4.22;;;0.70;;
77544;SDS011;66672;50.328;7.610;2023-04-01T02:36:25;2.05;;;0.50;;
77544;SDS011;66672;50.328;7.610;2023-04-01T02:38:50;1.98;;;0.50;;
77544;SDS011;66672;50.328;7.610;2023-04-01T02:41:16;4.78;;;0.93;;
77544;SDS011;66672;50.328;7.610;2023-04-01T02:43:42;2.75;;;0.52;;
77544;SDS011;66672;50.328;7.610;2023-04-01T02:46:07;3.22;;;0.65;;
77544;SDS011;66672;50.328;7.610;2023-04-01T02:48:32;2.20;;;0.55;;
77544;SDS011;66672;50.328;7.610;2023-04-01T02:50:57;2.05;;;0.47;;
77544;SDS011;66672;50.328;7.610;2023-04-01T02:53:22;4.78;;;0.50;;
77544;SDS011;66672;50.328;7.610;2023-04-01T02:55:48;0.22;;;0.22;;
77544;SDS011;66672;50.328;7.610;2023-04-01T02:58:15;3.03;;;1.00;;
77544;SDS011;66672;50.328;7.610;2023-04-01T03:00:40;1.85;;;0.40;;
77544;SDS011;66672;50.328;7.610;2023-04-01T03:03:05;1.88;;;0.65;;
77544;SDS011;66672;50.328;7.610;2023-04-01T03:05:30;2.17;;;0.45;;
77544;SDS011;66672;50.328;7.610;2023-04-01T03:07:56;2.95;;;0.80;;
77544;SDS011;66672;50.328;7.610;2023-04-01T03:10:21;2.75;;;0.30;;
77544;SDS011;66672;50.328;7.610;2023-04-01T03:12:46;2.92;;;0.60;;
77544;SDS011;66672;50.328;7.610;2023-04-01T03:15:12;0.45;;;0.22;;
77544;SDS011;66672;50.328;7.610;2023-04-01T03:17:39;1.05;;;0.30;;
77544;SDS011;66672;50.328;7.610;2023-04-01T03:20:04;0.95;;;0.40;;
77544;SDS011;66672;50.328;7.610;2023-04-01T03:22:30;1.45;;;0.30;;
77544;SDS011;66672;50.328;7.610;2023-04-01T03:24:55;2.78;;;0.50;;
77544;SDS011;66672;50.328;7.610;2023-04-01T03:27:21;3.85;;;0.60;;
77544;SDS011;66672;50.328;7.610;2023-04-01T03:29:46;3.92;;;0.57;;
77544;SDS011;66672;50.328;7.610;2023-04-01T03:32:11;2.83;;;0.70;;
77544;SDS011;66672;50.328;7.610;2023-04-01T03:34:36;2.10;;;0.60;;
77544;SDS011;66672;50.328;7.610;2023-04-01T03:37:01;2.03;;;0.43;;
77544;SDS011;66672;50.328;7.610;2023-04-01T03:39:26;3.63;;;0.40;;
77544;SDS011;66672;50.328;7.610;2023-04-01T03:41:52;2.90;;;0.60;;
77544;SDS011;66672;50.328;7.610;2023-04-01T03:44:17;0.90;;;0.40;;
77544;SDS011;66672;50.328;7.610;2023-04-01T03:46:42;1.45;;;0.30;;
77544;SDS011;66672;50.328;7.610;2023-04-01T03:49:08;1.85;;;0.43;;
77544;SDS011;66672;50.328;7.610;2023-04-01T03:51:39;4.45;;;0.55;;
77544;SDS011;66672;50.328;7.610;2023-04-01T03:54:05;4.07;;;0.45;;
77544;SDS011;66672;50.328;7.610;2023-04-01T03:56:31;3.53;;;0.40;;
77544;SDS011;66672;50.328;7.610;2023-04-01T03:58:56;1.85;;;0.50;;
77544;SDS011;66672;50.328;7.610;2023-04-01T04:01:21;1.42;;;0.50;;
77544;SDS011;66672;50.328;7.610;2023-04-01T04:03:47;1.77;;;0.40;;
77544;SDS011;66672;50.328;7.610;2023-04-01T04:06:13;3.75;;;0.35;;
77544;SDS011;66672;50.328;7.610;2023-04-01T04:08:39;2.75;;;0.32;;
77544;SDS011;66672;50.328;7.610;2023-04-01T04:11:04;1.58;;;0.65;;
77544;SDS011;66672;50.328;7.610;2023-04-01T04:13:30;1.95;;;0.30;;
77544;SDS011;66672;50.328;7.610;2023-04-01T04:15:55;3.17;;;0.38;;
77544;SDS011;66672;50.328;7.610;2023-04-01T04:18:20;1.15;;;0.20;;
77544;SDS011;66672;50.328;7.610;2023-04-01T04:20:45;1.65;;;0.52;;
77544;SDS011;66672;50.328;7.610;2023-04-01T04:23:13;2.92;;;0.43;;
77544;SDS011;66672;50.328;7.610;2023-04-01T04:25:38;1.73;;;0.40;;
77544;SDS011;66672;50.328;7.610;2023-04-01T04:28:03;0.65;;;0.20;;
77544;SDS011;66672;50.328;7.610;2023-04-01T04:30:29;2.60;;;0.50;;
77544;SDS011;66672;50.328;7.610;2023-04-01T04:32:54;1.67;;;0.32;;
77544;SDS011;66672;50.328;7.610;2023-04-01T04:35:19;1.30;;;0.20;;
77544;SDS011;66672;50.328;7.610;2023-04-01T04:37:44;1.17;;;0.40;;
77544;SDS011;66672;50.328;7.610;2023-04-01T04:40:09;2.13;;;0.38;;
77544;SDS011;66672;50.328;7.610;2023-04-01T04:42:35;0.30;;;0.20;;
77544;SDS011;66672;50.328;7.610;2023-04-01T04:45:00;1.63;;;0.30;;
77544;SDS011;66672;50.328;7.610;2023-04-01T04:47:25;1.85;;;0.38;;
77544;SDS011;66672;50.328;7.610;2023-04-01T04:49:50;0.80;;;0.30;;
77544;SDS011;66672;50.328;7.610;2023-04-01T04:52:15;3.63;;;0.30;;
77544;SDS011;66672;50.328;7.610;2023-04-01T04:54:40;1.23;;;0.43;;
77544;SDS011;66672;50.328;7.610;2023-04-01T04:57:06;0.80;;;0.30;;
77544;SDS011;66672;50.328;7.610;2023-04-01T04:59:31;0.88;;;0.25;;
77544;SDS011;66672;50.328;7.610;2023-04-01T05:01:56;2.03;;;0.32;;
77544;SDS011;66672;50.328;7.610;2023-04-01T05:04:21;0.17;;;0.15;;
77544;SDS011;66672;50.328;7.610;2023-04-01T05:06:47;0.47;;;0.25;;
77544;SDS011;66672;50.328;7.610;2023-04-01T05:09:12;0.43;;;0.30;;
77544;SDS011;66672;50.328;7.610;2023-04-01T05:11:37;1.55;;;0.30;;
77544;SDS011;66672;50.328;7.610;2023-04-01T05:14:02;2.72;;;0.38;;
77544;SDS011;66672;50.328;7.610;2023-04-01T05:16:27;2.72;;;0.40;;
77544;SDS011;66672;50.328;7.610;2023-04-01T05:18:53;1.00;;;0.35;;
77544;SDS011;66672;50.328;7.610;2023-04-01T05:21:18;0.40;;;0.20;;
77544;SDS011;66672;50.328;7.610;2023-04-01T05:23:43;2.80;;;0.40;;
77544;SDS011;66672;50.328;7.610;2023-04-01T05:26:12;0.98;;;0.20;;
77544;SDS011;66672;50.328;7.610;2023-04-01T05:28:38;4.05;;;1.27;;
77544;SDS011;66672;50.328;7.610;2023-04-01T05:31:04;1.45;;;0.20;;
77544;SDS011;66672;50.328;7.610;2023-04-01T05:33:29;0.85;;;0.22;;
77544;SDS011;66672;50.328;7.610;2023-04-01T05:35:55;0.38;;;0.20;;
77544;SDS011;66672;50.328;7.610;2023-04-01T05:38:20;0.35;;;0.10;;
77544;SDS011;66672;50.328;7.610;2023-04-01T05:40:45;0.98;;;0.20;;
77544;SDS011;66672;50.328;7.610;2023-04-01T05:43:10;1.33;;;0.30;;
77544;SDS011;66672;50.328;7.610;2023-04-01T05:45:36;1.52;;;0.57;;
77544;SDS011;66672;50.328;7.610;2023-04-01T05:48:01;0.95;;;0.22;;
77544;SDS011;66672;50.328;7.610;2023-04-01T05:50:26;1.35;;;0.25;;
77544;SDS011;66672;50.328;7.610;2023-04-01T05:52:52;0.85;;;0.30;;
77544;SDS011;66672;50.328;7.610;2023-04-01T05:55:17;3.53;;;0.43;;
77544;SDS011;66672;50.328;7.610;2023-04-01T05:57:44;1.42;;;0.30;;
77544;SDS011;66672;50.328;7.610;2023-04-01T06:00:09;1.83;;;0.95;;
77544;SDS011;66672;50.328;7.610;2023-04-01T06:02:35;4.00;;;0.43;;
77544;SDS011;66672;50.328;7.610;2023-04-01T06:05:03;1.33;;;0.20;;
77544;SDS011;66672;50.328;7.610;2023-04-01T06:07:35;0.60;;;0.38;;
77544;SDS011;66672;50.328;7.610;2023-04-01T06:10:00;0.93;;;0.20;;
77544;SDS011;66672;50.328;7.610;2023-04-01T06:12:31;0.80;;;0.22;;
77544;SDS011;66672;50.328;7.610;2023-04-01T06:19:57;0.73;;;0.30;;
77544;SDS011;66672;50.328;7.610;2023-04-01T06:43:07;0.78;;;0.18;;
77544;SDS011;66672;50.328;7.610;2023-04-01T06:45:46;0.30;;;0.30;;
77544;SDS011;66672;50.328;7.610;2023-04-01T06:48:22;0.10;;;0.10;;
77544;SDS011;66672;50.328;7.610;2023-04-01T06:53:24;0.10;;;0.10;;
77544;SDS011;66672;50.328;7.610;2023-04-01T06:56:04;0.43;;;0.20;;
77544;SDS011;66672;50.328;7.610;2023-04-01T06:59:15;1.90;;;0.40;;
77544;SDS011;66672;50.328;7.610;2023-04-01T07:01:26;2.30;;;0.20;;
77544;SDS011;66672;50.328;7.610;2023-04-01T07:03:53;0.95;;;0.20;;
77544;SDS011;66672;50.328;7.610;2023-04-01T07:06:24;0.85;;;0.17;;
77544;SDS011;66672;50.328;7.610;2023-04-01T07:08:50;0.47;;;0.20;;
77544;SDS011;66672;50.328;7.610;2023-04-01T07:11:28;0.10;;;0.10;;
77544;SDS011;66672;50.328;7.610;2023-04-01T07:13:55;0.55;;;0.20;;
77544;SDS011;66672;50.328;7.610;2023-04-01T07:16:42;0.60;;;0.22;;
77544;SDS011;66672;50.328;7.610;2023-04-01T07:19:09;0.38;;;0.10;;
77544;SDS011;66672;50.328;7.610;2023-04-01T07:21:40;0.10;;;0.10;;
77544;SDS011;66672;50.328;7.610;2023-04-01T07:24:13;1.65;;;0.20;;
77544;SDS011;66672;50.328;7.610;2023-04-01T07:26:41;0.22;;;0.13;;
77544;SDS011;66672;50.328;7.610;2023-04-01T07:29:09;0.60;;;0.20;;
77544;SDS011;66672;50.328;7.610;2023-04-01T07:34:19;1.40;;;0.14;;
77544;SDS011;66672;50.328;7.610;2023-04-01T07:36:47;1.77;;;0.20;;
77544;SDS011;66672;50.328;7.610;2023-04-01T07:41:45;0.70;;;0.20;;
77544;SDS011;66672;50.328;7.610;2023-04-01T07:44:19;0.55;;;0.20;;
77544;SDS011;66672;50.328;7.610;2023-04-01T07:52:06;0.20;;;0.20;;
77544;SDS011;66672;50.328;7.610;2023-04-01T07:54:43;0.50;;;0.22;;
77544;SDS011;66672;50.328;7.610;2023-04-01T08:04:52;0.38;;;0.20;;
77544;SDS011;66672;50.328;7.610;2023-04-01T08:07:20;0.52;;;0.17;;
77544;SDS011;66672;50.328;7.610;2023-04-01T08:12:28;0.93;;;0.28;;
77544;SDS011;66672;50.328;7.610;2023-04-01T08:20:03;1.17;;;0.25;;
77544;SDS011;66672;50.328;7.610;2023-04-01T08:22:42;0.60;;;0.20;;
77544;SDS011;66672;50.328;7.610;2023-04-01T08:25:10;2.65;;;0.30;;
77544;SDS011;66672;50.328;7.610;2023-04-01T08:27:39;1.60;;;0.20;;
77544;SDS011;66672;50.328;7.610;2023-04-01T08:32:35;1.17;;;0.20;;
77544;SDS011;66672;50.328;7.610;2023-04-01T08:37:34;0.35;;;0.20;;
77544;SDS011;66672;50.328;7.610;2023-04-01T08:40:01;0.30;;;0.10;;
77544;SDS011;66672;50.328;7.610;2023-04-01T08:42:57;0.73;;;0.20;;
77544;SDS011;66672;50.328;7.610;2023-04-01T08:45:41;0.40;;;0.20;;
77544;SDS011;66672;50.328;7.610;2023-04-01T08:48:11;0.60;;;0.30;;
77544;SDS011;66672;50.328;7.610;2023-04-01T08:55:38;0.40;;;0.22;;
77544;SDS011;66672;50.328;7.610;2023-04-01T08:58:27;1.23;;;0.22;;
77544;SDS011;66672;50.328;7.610;2023-04-01T09:01:20;0.22;;;0.20;;
77544;SDS011;66672;50.328;7.610;2023-04-01T09:06:35;0.63;;;0.20;;
77544;SDS011;66672;50.328;7.610;2023-04-01T09:09:09;0.40;;;0.20;;
77544;SDS011;66672;50.328;7.610;2023-04-01T09:17:01;0.88;;;0.25;;
77544;SDS011;66672;50.328;7.610;2023-04-01T09:19:33;0.20;;;0.13;;
77544;SDS011;66672;50.328;7.610;2023-04-01T09:35:05;0.20;;;0.20;;
77544;SDS011;66672;50.328;7.610;2023-04-01T09:37:34;0.50;;;0.20;;
77544;SDS011;66672;50.328;7.610;2023-04-01T09:42:44;0.10;;;0.10;;
77544;SDS011;66672;50.328;7.610;2023-04-01T09:45:32;0.75;;;0.20;;
77544;SDS011;66672;50.328;7.610;2023-04-01T09:48:02;0.75;;;0.20;;
77544;SDS011;66672;50.328;7.610;2023-04-01T09:50:52;1.50;;;0.43;;
77544;SDS011;66672;50.328;7.610;2023-04-01T10:03:58;0.57;;;0.28;;
77544;SDS011;66672;50.328;7.610;2023-04-01T10:12:09;0.85;;;0.40;;
77544;SDS011;66672;50.328;7.610;2023-04-01T10:14:53;0.55;;;0.40;;
77544;SDS011;66672;50.328;7.610;2023-04-01T10:28:35;1.10;;;0.52;;
77544;SDS011;66672;50.328;7.610;2023-04-01T10:31:11;0.52;;;0.32;;
77544;SDS011;66672;50.328;7.610;2023-04-01T10:51:54;1.08;;;0.63;;
77544;SDS011;66672;50.328;7.610;2023-04-01T11:07:41;0.88;;;0.40;;
77544;SDS011;66672;50.328;7.610;2023-04-01T11:23:10;1.27;;;0.73;;
77544;SDS011;66672;50.328;7.610;2023-04-01T11:25:50;2.97;;;0.70;;
77544;SDS011;66672;50.328;7.610;2023-04-01T11:33:26;2.05;;;0.70;;
77544;SDS011;66672;50.328;7.610;2023-04-01T11:36:15;0.60;;;0.45;;
77544;SDS011;66672;50.328;7.610;2023-04-01T11:41:32;1.58;;;0.50;;
77544;SDS011;66672;50.328;7.610;2023-04-01T11:44:21;1.30;;;0.60;;
77544;SDS011;66672;50.328;7.610;2023-04-01T12:04:30;1.20;;;0.60;;
77544;SDS011;66672;50.328;7.610;2023-04-01T12:12:09;1.13;;;0.50;;
77544;SDS011;66672;50.328;7.610;2023-04-01T12:14:53;1.92;;;0.57;;
77544;SDS011;66672;50.328;7.610;2023-04-01T12:22:56;1.55;;;0.70;;
77544;SDS011;66672;50.328;7.610;2023-04-01T12:25:31;0.73;;;0.60;;
77544;SDS011;66672;50.328;7.610;2023-04-01T12:30:32;1.15;;;0.60;;
77544;SDS011;66672;50.328;7.610;2023-04-01T12:33:21;1.65;;;0.80;;
77544;SDS011;66672;50.328;7.610;2023-04-01T12:38:33;0.92;;;0.70;;
77544;SDS011;66672;50.328;7.610;2023-04-01T12:41:14;1.27;;;0.73;;
77544;SDS011;66672;50.328;7.610;2023-04-01T12:49:12;0.95;;;0.70;;
77544;SDS011;66672;50.328;7.610;2023-04-01T12:51:45;1.25;;;0.70;;
77544;SDS011;66672;50.328;7.610;2023-04-01T12:54:36;2.15;;;1.20;;
77544;SDS011;66672;50.328;7.610;2023-04-01T13:02:13;0.90;;;0.68;;
77544;SDS011;66672;50.328;7.610;2023-04-01T13:09:56;2.20;;;1.10;;
77544;SDS011;66672;50.328;7.610;2023-04-01T13:17:38;1.70;;;1.02;;
77544;SDS011;66672;50.328;7.610;2023-04-01T13:20:30;1.20;;;0.70;;
77544;SDS011;66672;50.328;7.610;2023-04-01T13:22:56;1.10;;;0.85;;
77544;SDS011;66672;50.328;7.610;2023-04-01T13:25:36;2.63;;;0.90;;
77544;SDS011;66672;50.328;7.610;2023-04-01T13:33:15;1.67;;;0.85;;
77544;SDS011;66672;50.328;7.610;2023-04-01T13:36:22;2.55;;;1.30;;
77544;SDS011;66672;50.328;7.610;2023-04-01T13:43:45;3.22;;;1.10;;
77544;SDS011;66672;50.328;7.610;2023-04-01T13:46:24;1.85;;;1.00;;
77544;SDS011;66672;50.328;7.610;2023-04-01T14:02:06;1.32;;;0.64;;
77544;SDS011;66672;50.328;7.610;2023-04-01T14:15:07;1.58;;;0.80;;
77544;SDS011;66672;50.328;7.610;2023-04-01T14:25:55;1.48;;;0.70;;
77544;SDS011;66672;50.328;7.610;2023-04-01T14:28:31;1.25;;;0.70;;
77544;SDS011;66672;50.328;7.610;2023-04-01T14:33:41;2.03;;;0.63;;
77544;SDS011;66672;50.328;7.610;2023-04-01T14:38:59;1.63;;;0.75;;
77544;SDS011;66672;50.328;7.610;2023-04-01T14:44:05;0.98;;;0.75;;
77544;SDS011;66672;50.328;7.610;2023-04-01T14:49:28;1.02;;;0.68;;
77544;SDS011;66672;50.328;7.610;2023-04-01T14:51:55;1.40;;;0.70;;
77544;SDS011;66672;50.328;7.610;2023-04-01T14:54:35;0.85;;;0.47;;
77544;SDS011;66672;50.328;7.610;2023-04-01T14:57:43;1.27;;;0.50;;
77544;SDS011;66672;50.328;7.610;2023-04-01T15:22:43;3.85;;;1.00;;
77544;SDS011;66672;50.328;7.610;2023-04-01T15:28:00;2.75;;;1.00;;
77544;SDS011;66672;50.328;7.610;2023-04-01T15:30:31;4.82;;;2.50;;
77544;SDS011;66672;50.328;7.610;2023-04-01T15:33:02;3.05;;;1.70;;
77544;SDS011;66672;50.328;7.610;2023-04-01T15:38:06;1.98;;;0.57;;
77544;SDS011;66672;50.328;7.610;2023-04-01T15:43:11;1.33;;;0.55;;
77544;SDS011;66672;50.328;7.610;2023-04-01T16:03:57;2.72;;;1.20;;
77544;SDS011;66672;50.328;7.610;2023-04-01T16:06:32;4.35;;;2.13;;
77544;SDS011;66672;50.328;7.610;2023-04-01T16:17:04;3.38;;;1.63;;
77544;SDS011;66672;50.328;7.610;2023-04-01T16:19:33;5.47;;;1.80;;
77544;SDS011;66672;50.328;7.610;2023-04-01T16:22:03;5.47;;;1.92;;
77544;SDS011;66672;50.328;7.610;2023-04-01T16:24:51;1.65;;;0.50;;
77544;SDS011;66672;50.328;7.610;2023-04-01T16:29:48;1.10;;;0.60;;
77544;SDS011;66672;50.328;7.610;2023-04-01T16:32:17;2.03;;;0.75;;
77544;SDS011;66672;50.328;7.610;2023-04-01T16:34:46;1.92;;;0.60;;
77544;SDS011;66672;50.328;7.610;2023-04-01T16:37:27;1.45;;;0.60;;
77544;SDS011;66672;50.328;7.610;2023-04-01T16:42:22;0.63;;;0.40;;
77544;SDS011;66672;50.328;7.610;2023-04-01T16:47:19;0.47;;;0.40;;
77544;SDS011;66672;50.328;7.610;2023-04-01T16:49:53;1.48;;;0.70;;
77544;SDS011;66672;50.328;7.610;2023-04-01T16:55:12;1.30;;;0.70;;
77544;SDS011;66672;50.328;7.610;2023-04-01T16:57:48;1.25;;;0.50;;
77544;SDS011;66672;50.328;7.610;2023-04-01T17:00:28;3.25;;;1.00;;
77544;SDS011;66672;50.328;7.610;2023-04-01T17:08:10;1.60;;;0.95;;
77544;SDS011;66672;50.328;7.610;2023-04-01T17:10:44;1.08;;;0.73;;
77544;SDS011;66672;50.328;7.610;2023-04-01T17:18:26;0.82;;;0.60;;
77544;SDS011;66672;50.328;7.610;2023-04-01T17:33:48;0.80;;;0.50;;
77544;SDS011;66672;50.328;7.610;2023-04-01T17:36:33;4.07;;;1.80;;
77544;SDS011;66672;50.328;7.610;2023-04-01T17:44:21;1.20;;;0.65;;
77544;SDS011;66672;50.328;7.610;2023-04-01T17:49:32;1.63;;;0.80;;
77544;SDS011;66672;50.328;7.610;2023-04-01T17:52:44;1.60;;;0.80;;
77544;SDS011;66672;50.328;7.610;2023-04-01T18:00:01;1.20;;;0.65;;
77544;SDS011;66672;50.328;7.610;2023-04-01T18:07:45;2.17;;;0.80;;
77544;SDS011;66672;50.328;7.610;2023-04-01T18:20:30;1.13;;;0.70;;
77544;SDS011;66672;50.328;7.610;2023-04-01T18:23:20;1.33;;;0.63;;
77544;SDS011;66672;50.328;7.610;2023-04-01T18:25:46;1.02;;;0.70;;
77544;SDS011;66672;50.328;7.610;2023-04-01T18:28:18;1.38;;;0.70;;
77544;SDS011;66672;50.328;7.610;2023-04-01T18:30:49;1.15;;;0.52;;
77544;SDS011;66672;50.328;7.610;2023-04-01T18:40:51;1.55;;;0.80;;
77544;SDS011;66672;50.328;7.610;2023-04-01T18:43:21;1.63;;;0.80;;
77544;SDS011;66672;50.328;7.610;2023-04-01T18:45:59;3.55;;;0.90;;
77544;SDS011;66672;50.328;7.610;2023-04-01T18:51:01;2.45;;;0.85;;
77544;SDS011;66672;50.328;7.610;2023-04-01T18:53:35;2.65;;;1.08;;
77544;SDS011;66672;50.328;7.610;2023-04-01T18:56:04;2.40;;;0.90;;
77544;SDS011;66672;50.328;7.610;2023-04-01T18:58:49;1.88;;;0.80;;
77544;SDS011;66672;50.328;7.610;2023-04-01T19:01:26;1.00;;;0.60;;
77544;SDS011;66672;50.328;7.610;2023-04-01T19:04:09;2.05;;;0.77;;
77544;SDS011;66672;50.328;7.610;2023-04-01T19:11:55;3.03;;;1.00;;
77544;SDS011;66672;50.328;7.610;2023-04-01T19:19:34;2.90;;;1.10;;
77544;SDS011;66672;50.328;7.610;2023-04-01T19:22:10;2.55;;;1.00;;
77544;SDS011;66672;50.328;7.610;2023-04-01T19:24:51;3.05;;;1.00;;
77544;SDS011;66672;50.328;7.610;2023-04-01T19:35:27;3.13;;;0.80;;
77544;SDS011;66672;50.328;7.610;2023-04-01T19:38:03;3.50;;;0.75;;
77544;SDS011;66672;50.328;7.610;2023-04-01T19:40:36;5.05;;;1.10;;
77544;SDS011;66672;50.328;7.610;2023-04-01T19:43:09;4.28;;;2.08;;
77544;SDS011;66672;50.328;7.610;2023-04-01T19:45:43;4.20;;;1.80;;
77544;SDS011;66672;50.328;7.610;2023-04-01T19:48:22;5.50;;;2.45;;
77544;SDS011;66672;50.328;7.610;2023-04-01T19:51:05;3.22;;;1.52;;
77544;SDS011;66672;50.328;7.610;2023-04-01T19:53:40;4.55;;;2.05;;
77544;SDS011;66672;50.328;7.610;2023-04-01T19:56:14;4.43;;;2.00;;
77544;SDS011;66672;50.328;7.610;2023-04-01T20:04:11;2.75;;;1.35;;
77544;SDS011;66672;50.328;7.610;2023-04-01T20:06:42;2.50;;;1.20;;
77544;SDS011;66672;50.328;7.610;2023-04-01T20:11:55;4.15;;;2.42;;
77544;SDS011;66672;50.328;7.610;2023-04-01T20:17:01;4.42;;;2.24;;
77544;SDS011;66672;50.328;7.610;2023-04-01T20:24:47;2.03;;;0.80;;
77544;SDS011;66672;50.328;7.610;2023-04-01T20:29:47;1.58;;;0.70;;
77544;SDS011;66672;50.328;7.610;2023-04-01T20:35:00;1.50;;;0.75;;
77544;SDS011;66672;50.328;7.610;2023-04-01T20:50:34;2.05;;;0.80;;
77544;SDS011;66672;50.328;7.610;2023-04-01T20:55:29;4.20;;;1.52;;
77544;SDS011;66672;50.328;7.610;2023-04-01T20:57:58;2.55;;;1.25;;
77544;SDS011;66672;50.328;7.610;2023-04-01T21:00:36;2.28;;;0.80;;
77544;SDS011;66672;50.328;7.610;2023-04-01T21:10:46;1.80;;;0.57;;
77544;SDS011;66672;50.328;7.610;2023-04-01T21:18:47;1.67;;;0.60;;
77544;SDS011;66672;50.328;7.610;2023-04-01T21:21:28;1.00;;;0.60;;
77544;SDS011;66672;50.328;7.610;2023-04-01T21:25:01;3.40;;;1.17;;
77544;SDS011;66672;50.328;7.610;2023-04-01T21:26:56;1.08;;;0.80;;
77544;SDS011;66672;50.328;7.610;2023-04-01T21:29:31;1.33;;;0.63;;
77544;SDS011;66672;50.328;7.610;2023-04-01T21:32:11;1.42;;;0.73;;
77544;SDS011;66672;50.328;7.610;2023-04-01T21:34:55;1.38;;;0.70;;
77544;SDS011;66672;50.328;7.610;2023-04-01T21:50:43;1.75;;;0.75;;
77544;SDS011;66672;50.328;7.610;2023-04-01T22:00:38;1.14;;;0.52;;
77544;SDS011;66672;50.328;7.610;2023-04-01T22:13:50;0.40;;;0.38;;
77544;SDS011;66672;50.328;7.610;2023-04-01T22:29:43;1.10;;;0.50;;
77544;SDS011;66672;50.328;7.610;2023-04-01T22:32:12;2.08;;;0.65;;
77544;SDS011;66672;50.328;7.610;2023-04-01T22:44:45;0.90;;;0.63;;
77544;SDS011;66672;50.328;7.610;2023-04-01T22:49:47;1.20;;;0.60;;
77544;SDS011;66672;50.328;7.610;2023-04-01T22:52:18;1.48;;;0.70;;
77544;SDS011;66672;50.328;7.610;2023-04-01T22:54:47;1.27;;;0.68;;
77544;SDS011;66672;50.328;7.610;2023-04-01T22:57:15;1.95;;;0.70;;
77544;SDS011;66672;50.328;7.610;2023-04-01T23:02:14;0.90;;;0.60;;
77544;SDS011;66672;50.328;7.610;2023-04-01T23:04:42;2.17;;;0.90;;
77544;SDS011;66672;50.328;7.610;2023-04-01T23:07:24;1.90;;;0.82;;
77544;SDS011;66672;50.328;7.610;2023-04-01T23:09:51;2.45;;;1.30;;
77544;SDS011;66672;50.328;7.610;2023-04-01T23:12:18;1.75;;;0.90;;
77544;SDS011;66672;50.328;7.610;2023-04-01T23:26:09;0.82;;;0.70;;
77544;SDS011;66672;50.328;7.610;2023-04-01T23:33:50;1.40;;;0.80;;
77544;SDS011;66672;50.328;7.610;2023-04-01T23:35:58;2.17;;;0.70;;
77544;SDS011;66672;50.328;7.610;2023-04-01T23:38:40;1.42;;;0.80;;
77544;SDS011;66672;50.328;7.610;2023-04-01T23:41:27;0.90;;;0.60;;
77544;SDS011;66672;50.328;7.610;2023-04-01T23:44:01;1.58;;;0.80;;
77544;SDS011;66672;50.328;7.610;2023-04-01T23:46:27;1.88;;;0.95;;
77544;SDS011;66672;50.328;7.610;2023-04-01T23:48:54;1.80;;;0.80;;
77544;SDS011;66672;50.328;7.610;2023-04-01T23:51:25;2.17;;;1.00;;
77544;SDS011;66672;50.328;7.610;2023-04-01T23:54:04;1.15;;;0.70;;
77544;SDS011;66672;50.328;7.610;2023-04-01T23:56:39;2.20;;;1.10;;
77544;SDS011;66672;50.328;7.610;2023-04-01T23:59:09;1.95;;;0.90;;
